Time;durP1;ratioP1;P1;durP2;ratioP2;P2;SDS_P1;SDS_P2;PMS_P1;PMS_P2;Temp;Humidity;BMP_temperature;BMP_pressure;BME280_temperature;BME280_humidity;BME280_pressure;Samples;Min_cycle;Max_cycle;Signal;HPM_P1;HPM_P2
2023/07/14 00:00:34;;;;;;;12.43;5.85;;;16.90;99.90;;;;;;5080771;28;20552;-73
2023/07/14 00:03:01;;;;;;;13.43;7.00;;;16.90;99.90;;;;;;5077940;28;20076;-75
2023/07/14 00:05:35;;;;;;;17.83;7.13;;;16.80;99.90;;;;;;5077080;28;20101;-74
2023/07/14 00:08:03;;;;;;;11.95;6.57;;;16.80;99.90;;;;;;5082101;28;20123;-73
2023/07/14 00:10:35;;;;;;;11.02;6.28;;;16.70;99.90;;;;;;5063058;28;20032;-74
2023/07/14 00:13:07;;;;;;;10.18;5.95;;;16.70;99.90;;;;;;5059257;28;20094;-74
2023/07/14 00:15:35;;;;;;;12.90;5.63;;;16.70;99.90;;;;;;5077912;28;20052;-73
2023/07/14 00:18:23;;;;;;;12.00;5.30;;;16.70;99.90;;;;;;5083382;28;20044;-74
2023/07/14 00:20:49;;;;;;;16.73;5.40;;;16.60;99.90;;;;;;5079640;28;20571;-72
2023/07/14 00:23:15;;;;;;;12.05;5.10;;;16.60;99.90;;;;;;5073987;28;20131;-73
2023/07/14 00:25:41;;;;;;;8.15;4.68;;;16.60;99.90;;;;;;5056312;28;20079;-73
2023/07/14 00:28:21;;;;;;;10.57;4.57;;;16.50;99.90;;;;;;5075778;28;20043;-74
2023/07/14 00:30:50;;;;;;;9.13;4.65;;;16.50;99.90;;;;;;5072416;28;20029;-73
2023/07/14 00:33:18;;;;;;;13.38;5.43;;;16.50;99.90;;;;;;5079356;28;20496;-74
2023/07/14 00:35:47;;;;;;;11.65;4.63;;;16.40;99.90;;;;;;5076078;28;20052;-73
2023/07/14 00:38:14;;;;;;;16.00;5.45;;;16.40;99.90;;;;;;5079892;28;20052;-73
2023/07/14 00:40:44;;;;;;;11.02;5.60;;;16.40;99.90;;;;;;5080337;28;20029;-73
2023/07/14 00:43:20;;;;;;;13.73;5.60;;;16.40;99.90;;;;;;5083544;28;20048;-73
2023/07/14 00:45:51;;;;;;;11.48;6.13;;;16.30;99.90;;;;;;5077306;28;20098;-73
2023/07/14 00:48:21;;;;;;;;;;;16.30;99.90;;;;;;5078398;28;20445;-73
2023/07/14 00:51:15;;;;;;;9.85;6.00;;;16.30;99.90;;;;;;5060943;28;19927;-75
2023/07/14 00:53:43;;;;;;;12.38;5.50;;;16.30;99.90;;;;;;5078731;28;20170;-74
2023/07/14 00:56:14;;;;;;;13.68;6.53;;;16.20;99.90;;;;;;5078014;28;20037;-74
2023/07/14 00:58:46;;;;;;;12.00;5.90;;;16.20;99.90;;;;;;5063660;28;20111;-75
2023/07/14 01:01:13;;;;;;;11.48;6.65;;;16.30;99.90;;;;;;5079066;28;20043;-74
2023/07/14 01:03:45;;;;;;;15.07;5.90;;;16.20;99.90;;;;;;5061501;28;20047;-73
2023/07/14 01:06:23;;;;;;;13.80;7.10;;;16.20;99.90;;;;;;5080179;28;20040;-72
2023/07/14 01:09:01;;;;;;;15.25;6.93;;;16.20;99.90;;;;;;5081674;28;20151;-73
2023/07/14 01:11:32;;;;;;;13.57;7.32;;;16.20;99.90;;;;;;5076722;28;20160;-74
2023/07/14 01:14:01;;;;;;;15.90;7.35;;;16.20;99.90;;;;;;5076163;28;20036;-74
2023/07/14 01:16:29;;;;;;;13.82;8.02;;;16.10;99.90;;;;;;5077332;28;20051;-74
2023/07/14 01:18:56;;;;;;;18.35;8.40;;;16.10;99.90;;;;;;5075545;28;20058;-72
2023/07/14 01:21:22;;;;;;;15.80;7.30;;;16.10;99.90;;;;;;5077999;28;20032;-74
2023/07/14 01:24:06;;;;;;;15.10;7.78;;;16.00;99.90;;;;;;5065130;28;20063;-74
2023/07/14 01:26:41;;;;;;;12.23;7.25;;;16.00;99.90;;;;;;5074998;28;20048;-73
2023/07/14 01:29:08;;;;;;;18.60;9.30;;;15.90;99.90;;;;;;5081149;28;20052;-73
2023/07/14 01:31:35;;;;;;;13.70;7.97;;;15.90;99.90;;;;;;5083009;28;20042;-73
2023/07/14 01:34:02;;;;;;;17.98;7.85;;;15.90;99.90;;;;;;5074505;28;20528;-73
2023/07/14 01:36:29;;;;;;;14.65;7.43;;;15.90;99.90;;;;;;5079286;28;20429;-74
2023/07/14 01:38:55;;;;;;;13.82;8.35;;;15.90;99.90;;;;;;5061865;28;20156;-74
2023/07/14 01:41:22;;;;;;;16.08;8.35;;;15.80;99.90;;;;;;5062670;28;20169;-74
2023/07/14 01:43:48;;;;;;;14.98;7.68;;;15.80;99.90;;;;;;5065973;28;20043;-74
2023/07/14 01:46:20;;;;;;;12.02;7.43;;;15.90;99.90;;;;;;5079669;28;20052;-74
2023/07/14 01:48:58;;;;;;;13.68;8.77;;;15.80;99.90;;;;;;5077130;28;20040;-73
2023/07/14 01:51:33;;;;;;;15.57;9.00;;;15.80;99.90;;;;;;5066260;28;20401;-72
2023/07/14 01:54:03;;;;;;;16.42;9.65;;;15.80;99.90;;;;;;5077236;28;20055;-74
2023/07/14 01:56:30;;;;;;;13.10;8.07;;;15.70;99.90;;;;;;5079954;28;20416;-73
2023/07/14 01:59:08;;;;;;;13.38;7.68;;;15.70;99.90;;;;;;5068225;28;20127;-74
2023/07/14 02:01:36;;;;;;;13.75;8.35;;;15.70;99.90;;;;;;5063313;28;20047;-74
2023/07/14 02:04:05;;;;;;;13.20;8.27;;;15.70;99.90;;;;;;5077528;28;20111;-74
2023/07/14 02:06:32;;;;;;;16.67;9.43;;;15.70;99.90;;;;;;5075163;28;20420;-72
2023/07/14 02:08:59;;;;;;;12.63;8.57;;;15.70;99.90;;;;;;5074220;28;20064;-73
2023/07/14 02:11:27;;;;;;;13.52;8.27;;;15.70;99.90;;;;;;5076343;28;20415;-73
2023/07/14 02:13:57;;;;;;;15.93;8.73;;;15.60;99.90;;;;;;5063147;28;20056;-73
2023/07/14 02:16:24;;;;;;;14.55;7.82;;;15.60;99.90;;;;;;5080913;28;20181;-71
2023/07/14 02:18:52;;;;;;;13.75;8.00;;;15.60;99.90;;;;;;5064485;28;20512;-71
2023/07/14 02:21:28;;;;;;;16.35;8.10;;;15.60;99.90;;;;;;5081685;28;20101;-71
2023/07/14 02:23:55;;;;;;;15.35;9.07;;;15.70;99.90;;;;;;5065218;28;20088;-71
2023/07/14 02:26:30;;;;;;;14.95;9.15;;;15.70;99.90;;;;;;5080297;28;20040;-71
2023/07/14 02:28:59;;;;;;;14.38;8.60;;;15.70;99.90;;;;;;5084234;28;20036;-73
2023/07/14 02:31:38;;;;;;;17.50;10.25;;;15.70;99.90;;;;;;5065669;28;20502;-70
2023/07/14 02:34:05;;;;;;;15.70;8.73;;;15.70;99.90;;;;;;5085108;28;20070;-69
2023/07/14 02:37:16;;;;;;;15.30;8.27;;;15.60;99.90;;;;;;5083764;28;20572;-71
2023/07/14 02:39:42;;;;;;;14.75;9.25;;;15.60;99.90;;;;;;5075051;28;20131;-70
2023/07/14 02:42:07;;;;;;;13.93;8.20;;;15.60;99.90;;;;;;5078633;28;20120;-71
2023/07/14 02:44:37;;;;;;;16.02;8.48;;;15.60;99.90;;;;;;5078126;28;20080;-71
2023/07/14 02:47:15;;;;;;;11.75;8.05;;;15.60;99.90;;;;;;5082402;28;20047;-71
2023/07/14 02:49:42;;;;;;;13.18;8.15;;;15.60;99.90;;;;;;5079337;28;20052;-71
2023/07/14 02:52:08;;;;;;;15.38;8.35;;;15.60;99.90;;;;;;5081334;28;20159;-71
2023/07/14 02:54:33;;;;;;;15.23;8.48;;;15.60;99.90;;;;;;5066876;28;20048;-70
2023/07/14 02:57:00;;;;;;;12.10;8.88;;;15.60;99.90;;;;;;5082080;28;20048;-70
2023/07/14 02:59:26;;;;;;;12.57;7.97;;;15.60;99.90;;;;;;5059222;28;20498;-71
2023/07/14 03:01:51;;;;;;;15.63;9.45;;;15.60;99.90;;;;;;5084701;28;20174;-70
2023/07/14 03:04:17;;;;;;;16.50;8.77;;;15.50;99.90;;;;;;5092924;28;20405;-71
2023/07/14 03:06:43;;;;;;;13.73;8.98;;;15.50;99.90;;;;;;5078222;28;20079;-70
2023/07/14 03:09:09;;;;;;;15.10;9.35;;;15.50;99.90;;;;;;5079843;28;20044;-70
2023/07/14 03:11:35;;;;;;;15.43;8.32;;;15.50;99.90;;;;;;5062372;28;20069;-70
2023/07/14 03:14:02;;;;;;;15.70;8.88;;;15.50;99.90;;;;;;5083337;28;20055;-70
2023/07/14 03:16:28;;;;;;;18.08;9.60;;;15.50;99.90;;;;;;5082990;28;20047;-72
2023/07/14 03:18:55;;;;;;;18.73;9.23;;;15.50;99.90;;;;;;5057673;28;20044;-70
2023/07/14 03:21:21;;;;;;;15.55;9.40;;;15.50;99.90;;;;;;5083038;28;20048;-70
2023/07/14 03:23:47;;;;;;;18.40;9.73;;;15.40;99.90;;;;;;5060169;28;20036;-70
2023/07/14 03:26:13;;;;;;;14.18;9.55;;;15.40;99.90;;;;;;5080862;28;20048;-70
2023/07/14 03:28:39;;;;;;;15.15;9.07;;;15.40;99.90;;;;;;5075789;28;20146;-71
2023/07/14 03:31:05;;;;;;;17.30;9.68;;;15.40;99.90;;;;;;5082210;28;20435;-70
2023/07/14 03:33:33;;;;;;;14.05;8.35;;;15.30;99.90;;;;;;5082071;28;20041;-71
2023/07/14 03:36:09;;;;;;;14.35;9.00;;;15.30;99.90;;;;;;5079616;28;20079;-71
2023/07/14 03:38:42;;;;;;;19.48;9.23;;;15.30;99.90;;;;;;5078209;28;20086;-72
2023/07/14 03:41:08;;;;;;;14.57;8.40;;;15.30;99.90;;;;;;5080654;28;20106;-71
2023/07/14 03:43:34;;;;;;;16.40;10.20;;;15.30;99.90;;;;;;5080428;28;20040;-71
2023/07/14 03:46:00;;;;;;;14.57;9.40;;;15.20;99.90;;;;;;5059649;28;20045;-71
2023/07/14 03:48:26;;;;;;;19.65;9.90;;;15.30;99.90;;;;;;5075585;28;20039;-72
2023/07/14 03:50:52;;;;;;;13.95;8.52;;;15.20;99.90;;;;;;5082142;28;20028;-70
2023/07/14 03:53:17;;;;;;;15.20;8.25;;;15.20;99.90;;;;;;5081275;28;20078;-71
2023/07/14 03:55:47;;;;;;;16.33;9.90;;;15.20;99.90;;;;;;5075054;28;20088;-72
2023/07/14 03:58:12;;;;;;;16.73;8.73;;;15.20;99.90;;;;;;5081809;28;20119;-71
2023/07/14 04:00:38;;;;;;;17.95;8.32;;;15.20;99.90;;;;;;5073475;28;20409;-71
2023/07/14 04:03:04;;;;;;;15.07;8.50;;;15.20;99.90;;;;;;5060477;28;20051;-71
2023/07/14 04:05:30;;;;;;;15.90;8.27;;;15.20;99.90;;;;;;5082014;28;20043;-71
2023/07/14 04:07:56;;;;;;;17.48;9.13;;;15.20;99.90;;;;;;5074034;28;20119;-71
2023/07/14 04:10:22;;;;;;;16.17;9.45;;;15.10;99.90;;;;;;5074735;28;20079;-71
2023/07/14 04:12:49;;;;;;;17.10;8.40;;;15.10;99.90;;;;;;5074610;28;20040;-71
2023/07/14 04:15:14;;;;;;;10.93;8.00;;;15.10;99.90;;;;;;5055723;28;20050;-70
2023/07/14 04:17:41;;;;;;;17.02;9.18;;;15.10;99.90;;;;;;5080572;28;20040;-71
2023/07/14 04:20:07;;;;;;;13.88;8.95;;;15.10;99.90;;;;;;5071246;28;20040;-71
2023/07/14 04:22:33;;;;;;;14.35;8.15;;;15.10;99.90;;;;;;5081652;28;20051;-71
2023/07/14 04:24:59;;;;;;;13.63;8.82;;;15.10;99.90;;;;;;5076296;28;20048;-71
2023/07/14 04:27:26;;;;;;;13.05;8.15;;;15.10;99.90;;;;;;5080843;28;20048;-72
2023/07/14 04:29:53;;;;;;;17.00;7.85;;;15.20;99.90;;;;;;5079892;28;20066;-70
2023/07/14 04:32:18;;;;;;;15.52;7.90;;;15.20;99.90;;;;;;5055169;28;20047;-70
2023/07/14 04:34:46;;;;;;;13.45;8.82;;;15.20;99.90;;;;;;5076116;28;20048;-70
2023/07/14 04:37:12;;;;;;;16.02;7.95;;;15.20;99.90;;;;;;5075513;28;20072;-71
2023/07/14 04:39:37;;;;;;;14.10;8.02;;;15.20;99.90;;;;;;5079200;28;20115;-71
2023/07/14 04:42:04;;;;;;;13.57;8.25;;;15.20;99.90;;;;;;5071238;28;20052;-72
2023/07/14 04:44:30;;;;;;;14.63;7.65;;;15.30;99.90;;;;;;5072252;28;20052;-72
2023/07/14 04:46:59;;;;;;;15.68;6.85;;;15.40;99.90;;;;;;5070280;28;20055;-73
2023/07/14 04:49:28;;;;;;;14.85;7.07;;;15.60;99.90;;;;;;5070984;28;20561;-72
2023/07/14 04:51:54;;;;;;;11.30;6.20;;;15.70;99.90;;;;;;5071642;28;20097;-71
2023/07/14 04:54:23;;;;;;;10.65;6.38;;;15.80;99.90;;;;;;5080156;28;20044;-72
2023/07/14 04:56:50;;;;;;;12.95;6.65;;;15.90;99.90;;;;;;5070378;28;20408;-70
2023/07/14 04:59:16;;;;;;;14.60;7.03;;;16.00;99.90;;;;;;5070547;28;20056;-70
2023/07/14 05:01:42;;;;;;;15.70;7.65;;;16.20;99.90;;;;;;5074061;28;20052;-71
2023/07/14 05:04:08;;;;;;;14.98;6.75;;;16.20;99.90;;;;;;5056906;28;20049;-71
2023/07/14 05:06:34;;;;;;;12.20;5.82;;;16.30;99.90;;;;;;5073435;28;20065;-71
2023/07/14 05:09:00;;;;;;;12.07;5.60;;;16.40;99.90;;;;;;5063149;28;20040;-71
2023/07/14 05:11:26;;;;;;;19.15;6.40;;;16.60;99.90;;;;;;5055134;28;20389;-70
2023/07/14 05:13:52;;;;;;;10.70;4.80;;;16.70;99.90;;;;;;5058350;28;20032;-72
2023/07/14 05:16:18;;;;;;;11.77;4.82;;;17.00;99.90;;;;;;5076795;28;20041;-71
2023/07/14 05:18:45;;;;;;;9.80;4.32;;;17.20;99.90;;;;;;5077832;28;20040;-71
2023/07/14 05:21:12;;;;;;;9.82;4.43;;;17.30;99.90;;;;;;5073362;28;20056;-71
2023/07/14 05:23:37;;;;;;;11.88;4.72;;;17.50;99.90;;;;;;5074814;28;20048;-70
2023/07/14 05:26:03;;;;;;;11.93;5.05;;;17.70;99.90;;;;;;5078797;28;20097;-71
2023/07/14 05:28:29;;;;;;;9.75;4.22;;;17.80;99.90;;;;;;5073442;28;20098;-70
2023/07/14 05:30:55;;;;;;;12.45;4.05;;;17.70;99.90;;;;;;5072039;28;20787;-71
2023/07/14 05:33:21;;;;;;;11.80;4.70;;;17.70;99.90;;;;;;5059188;28;20067;-72
2023/07/14 05:35:48;;;;;;;10.40;4.90;;;17.60;99.90;;;;;;5066727;28;20094;-71
2023/07/14 05:38:14;;;;;;;10.00;4.50;;;17.50;99.90;;;;;;5086873;28;20047;-71
2023/07/14 05:40:40;;;;;;;14.35;4.50;;;17.40;99.90;;;;;;5053619;28;20128;-71
2023/07/14 05:43:06;;;;;;;11.32;4.57;;;17.30;99.90;;;;;;5081968;28;20111;-72
2023/07/14 05:45:32;;;;;;;13.32;4.57;;;17.20;99.90;;;;;;5078134;28;20373;-72
2023/07/14 05:47:58;;;;;;;19.00;4.60;;;17.20;99.90;;;;;;5086689;28;20455;-72
2023/07/14 05:50:24;;;;;;;12.85;5.10;;;17.10;99.90;;;;;;5079025;28;20134;-72
2023/07/14 05:52:50;;;;;;;11.88;4.40;;;17.10;99.90;;;;;;5087732;28;20044;-71
2023/07/14 05:55:16;;;;;;;12.23;4.28;;;17.00;99.90;;;;;;5063464;28;20595;-70
2023/07/14 05:57:43;;;;;;;10.70;4.28;;;17.00;99.90;;;;;;5056892;28;20154;-71
2023/07/14 06:00:13;;;;;;;13.18;4.82;;;17.00;99.90;;;;;;5080214;28;20044;-70
2023/07/14 06:02:46;;;;;;;12.27;4.90;;;17.00;99.90;;;;;;5087782;28;20062;-72
2023/07/14 06:05:13;;;;;;;11.80;4.72;;;17.00;99.90;;;;;;5084025;28;20060;-72
2023/07/14 06:07:40;;;;;;;10.88;4.35;;;17.00;99.90;;;;;;5088598;28;20075;-71
2023/07/14 06:10:07;;;;;;;11.75;3.85;;;17.00;99.90;;;;;;5061098;28;20124;-71
2023/07/14 06:12:33;;;;;;;10.05;3.90;;;17.00;99.90;;;;;;5073807;28;20062;-72
2023/07/14 06:14:59;;;;;;;10.77;4.50;;;17.00;99.90;;;;;;5076980;28;20048;-72
2023/07/14 06:17:28;;;;;;;12.32;4.25;;;17.10;99.90;;;;;;5098451;28;20473;-72
2023/07/14 06:19:54;;;;;;;11.80;4.00;;;17.10;99.90;;;;;;5088965;28;20044;-71
2023/07/14 06:22:20;;;;;;;12.55;4.20;;;17.10;99.90;;;;;;5060166;28;20052;-71
2023/07/14 06:24:48;;;;;;;12.93;4.22;;;17.20;99.90;;;;;;5087254;28;20055;-71
2023/07/14 06:27:14;;;;;;;12.57;4.47;;;17.20;99.90;;;;;;5097915;28;20039;-71
2023/07/14 06:29:40;;;;;;;9.73;4.20;;;17.20;99.90;;;;;;5087340;28;20032;-71
2023/07/14 06:32:07;;;;;;;12.45;4.57;;;17.20;99.90;;;;;;5086014;28;20051;-71
2023/07/14 06:34:32;;;;;;;10.82;4.70;;;17.30;99.90;;;;;;5069395;28;20070;-71
2023/07/14 06:36:58;;;;;;;12.30;4.75;;;17.30;99.90;;;;;;5064000;28;20039;-71
2023/07/14 06:39:24;;;;;;;14.07;4.60;;;17.40;99.90;;;;;;5080240;28;20378;-72
2023/07/14 06:41:50;;;;;;;14.38;4.30;;;17.50;99.90;;;;;;5082468;28;20036;-71
2023/07/14 06:44:16;;;;;;;12.68;4.35;;;17.50;99.90;;;;;;5072278;28;20993;-71
2023/07/14 06:46:43;;;;;;;9.88;4.38;;;17.60;99.90;;;;;;5055114;28;20963;-71
2023/07/14 06:49:09;;;;;;;9.88;4.03;;;17.60;99.90;;;;;;5071692;28;20045;-71
2023/07/14 06:51:35;;;;;;;13.10;4.40;;;17.60;99.90;;;;;;5077173;28;20408;-71
2023/07/14 06:54:01;;;;;;;11.88;4.28;;;17.60;99.90;;;;;;5075676;28;20036;-72
2023/07/14 06:56:27;;;;;;;11.73;4.20;;;17.70;99.90;;;;;;5075494;28;20069;-72
2023/07/14 06:58:52;;;;;;;9.20;4.07;;;17.60;99.90;;;;;;5054093;28;20562;-71
2023/07/14 07:01:20;;;;;;;11.32;3.90;;;17.70;99.90;;;;;;5078249;28;20428;-71
2023/07/14 07:03:46;;;;;;;9.82;4.22;;;17.70;99.90;;;;;;5058158;28;20043;-71
2023/07/14 07:06:15;;;;;;;10.15;4.05;;;17.80;99.90;;;;;;5052124;28;20048;-71
2023/07/14 07:08:41;;;;;;;9.35;3.90;;;17.80;99.90;;;;;;5076437;28;20778;-73
2023/07/14 07:11:10;;;;;;;11.20;4.07;;;17.90;99.90;;;;;;5070374;28;20055;-73
2023/07/14 07:13:36;;;;;;;8.82;3.22;;;17.90;99.90;;;;;;5069788;28;20043;-72
2023/07/14 07:16:02;;;;;;;8.13;3.50;;;17.90;99.90;;;;;;5051227;28;20048;-74
2023/07/14 07:18:28;;;;;;;10.38;3.80;;;18.00;99.90;;;;;;5069052;28;20086;-74
2023/07/14 07:20:55;;;;;;;9.43;3.75;;;18.10;99.90;;;;;;5051643;28;20165;-74
2023/07/14 07:23:21;;;;;;;14.13;4.05;;;18.20;99.90;;;;;;5051017;28;20055;-72
2023/07/14 07:25:54;;;;;;;10.20;4.30;;;18.20;99.90;;;;;;5068099;28;20493;-73
2023/07/14 07:28:21;;;;;;;13.10;4.55;;;18.30;99.90;;;;;;5071380;28;20055;-75
2023/07/14 07:30:47;;;;;;;8.98;4.38;;;18.40;99.90;;;;;;5050639;28;20895;-73
2023/07/14 07:33:14;;;;;;;10.55;4.40;;;18.50;99.90;;;;;;5071354;28;20147;-73
2023/07/14 07:35:41;;;;;;;11.15;4.55;;;18.60;99.90;;;;;;5069288;28;20048;-74
2023/07/14 07:38:10;;;;;;;11.20;4.47;;;18.70;99.90;;;;;;5077032;28;20048;-74
2023/07/14 07:40:36;;;;;;;12.00;4.53;;;18.90;99.90;;;;;;5067425;28;20036;-73
2023/07/14 07:43:02;;;;;;;9.85;4.65;;;19.00;99.90;;;;;;5068267;28;20056;-73
2023/07/14 07:45:28;;;;;;;9.55;4.45;;;19.20;99.90;;;;;;5068224;28;20036;-74
2023/07/14 07:47:54;;;;;;;10.60;4.50;;;19.30;99.90;;;;;;5070432;28;21113;-73
2023/07/14 07:50:20;;;;;;;14.75;4.93;;;19.40;99.90;;;;;;5068074;28;20051;-73
2023/07/14 07:52:46;;;;;;;10.07;4.78;;;19.50;99.90;;;;;;5070018;28;20071;-73
2023/07/14 07:55:11;;;;;;;10.00;5.03;;;19.60;99.90;;;;;;5069509;28;20048;-73
2023/07/14 07:57:37;;;;;;;10.07;5.05;;;19.60;99.90;;;;;;5069328;28;20040;-72
2023/07/14 08:00:05;;;;;;;14.52;5.00;;;19.70;99.90;;;;;;5067189;28;20036;-73
2023/07/14 08:02:30;;;;;;;9.75;4.07;;;19.70;99.90;;;;;;5070214;28;20188;-74
2023/07/14 08:04:56;;;;;;;10.57;4.60;;;19.80;99.90;;;;;;5065326;28;20714;-74
2023/07/14 08:07:22;;;;;;;11.77;4.13;;;19.90;99.90;;;;;;5071395;28;20390;-74
2023/07/14 08:09:50;;;;;;;9.32;4.00;;;19.90;99.90;;;;;;5053609;28;20044;-74
2023/07/14 08:12:16;;;;;;;8.57;3.80;;;19.90;99.90;;;;;;5066238;28;20059;-73
2023/07/14 08:14:52;;;;;;;9.85;4.10;;;20.00;99.90;;;;;;5067404;28;21314;-74
2023/07/14 08:17:24;;;;;;;7.40;3.63;;;20.10;99.90;;;;;;5054235;28;20416;-74
2023/07/14 08:19:50;;;;;;;8.27;3.40;;;20.20;99.90;;;;;;5051570;28;20040;-73
2023/07/14 08:22:16;;;;;;;7.95;3.25;;;20.30;99.90;;;;;;5066422;28;20147;-73
2023/07/14 08:24:42;;;;;;;7.68;3.42;;;20.40;99.90;;;;;;5074792;28;20051;-73
2023/07/14 08:27:08;;;;;;;12.18;3.50;;;20.40;99.90;;;;;;5069752;28;20032;-72
2023/07/14 08:29:34;;;;;;;8.18;3.55;;;20.40;99.90;;;;;;5067928;28;20119;-72
2023/07/14 08:31:59;;;;;;;7.20;3.03;;;20.50;99.90;;;;;;5045609;28;20048;-73
2023/07/14 08:34:29;;;;;;;7.85;3.63;;;20.60;99.90;;;;;;5078662;28;20040;-72
2023/07/14 08:36:58;;;;;;;8.02;3.30;;;20.60;99.90;;;;;;5049063;28;20040;-72
2023/07/14 08:39:23;;;;;;;6.07;2.55;;;20.70;99.90;;;;;;5063705;28;20051;-73
2023/07/14 08:41:56;;;;;;;6.18;2.60;;;20.80;99.90;;;;;;5047740;28;20738;-72
2023/07/14 08:44:31;;;;;;;5.65;2.30;;;20.90;99.90;;;;;;5068462;28;20080;-72
2023/07/14 08:47:17;;;;;;;7.78;2.35;;;20.90;99.90;;;;;;5066918;28;20052;-73
2023/07/14 08:49:55;;;;;;;6.63;2.60;;;20.90;99.90;;;;;;5066138;28;20048;-73
2023/07/14 08:52:29;;;;;;;6.60;2.70;;;21.00;99.90;;;;;;5065797;28;20411;-73
2023/07/14 08:55:02;;;;;;;7.28;2.40;;;21.10;99.90;;;;;;5067799;28;20036;-73
2023/07/14 08:57:29;;;;;;;6.53;2.85;;;21.20;99.90;;;;;;5067776;28;20056;-73
2023/07/14 09:00:00;;;;;;;7.55;2.65;;;21.40;99.90;;;;;;5054392;28;20055;-72
2023/07/14 09:02:45;;;;;;;4.57;2.35;;;21.50;99.90;;;;;;5080587;28;20229;-71
2023/07/14 09:05:26;;;;;;;7.63;2.00;;;21.60;99.90;;;;;;5058812;28;20121;-73
2023/07/14 09:07:52;;;;;;;;;;;21.60;99.90;;;;;;5072360;28;20040;-73
2023/07/14 09:10:18;;;;;;;5.03;1.80;;;21.60;99.90;;;;;;5053252;28;19928;-72
2023/07/14 09:13:13;;;;;;;8.50;2.08;;;21.50;99.90;;;;;;5053364;28;20063;-73
2023/07/14 09:15:40;;;;;;;6.03;1.95;;;21.40;99.90;;;;;;5067357;28;20060;-73
2023/07/14 09:18:22;;;;;;;5.63;2.30;;;21.40;99.90;;;;;;5067981;28;20048;-72
2023/07/14 09:21:32;;;;;;;8.35;2.47;;;21.40;99.90;;;;;;5074958;28;20481;-74
2023/07/14 09:24:21;;;;;;;5.93;2.10;;;21.50;99.90;;;;;;5067044;28;20112;-72
2023/07/14 09:26:54;;;;;;;5.40;2.00;;;21.60;99.90;;;;;;5069250;28;20040;-73
2023/07/14 09:29:44;;;;;;;7.82;2.30;;;21.60;99.90;;;;;;5068239;28;20050;-73
2023/07/14 09:32:35;;;;;;;6.07;2.15;;;21.70;99.90;;;;;;5073976;28;20060;-72
2023/07/14 09:35:25;;;;;;;8.95;2.42;;;21.70;99.90;;;;;;5069580;28;20052;-74
2023/07/14 09:37:58;;;;;;;7.60;2.00;;;21.80;99.90;;;;;;5057892;28;20048;-72
2023/07/14 09:40:28;;;;;;;6.57;2.28;;;21.80;99.90;;;;;;5070111;28;20443;-72
2023/07/14 09:42:55;;;;;;;;;;;21.90;99.90;;;;;;5072032;28;20040;-71
2023/07/14 09:45:30;;;;;;;6.80;2.17;;;22.00;99.90;;;;;;5072365;28;19928;-71
2023/07/14 09:48:14;;;;;;;6.97;2.47;;;22.10;99.90;;;;;;5068977;28;20519;-72
2023/07/14 09:50:51;;;;;;;7.10;2.55;;;22.20;99.90;;;;;;5070400;28;20044;-72
2023/07/14 09:53:17;;;;;;;6.78;2.38;;;22.20;99.90;;;;;;5067124;28;20057;-72
2023/07/14 09:55:55;;;;;;;7.03;2.40;;;22.20;99.90;;;;;;5070437;28;20055;-73
2023/07/14 09:58:24;;;;;;;6.40;2.28;;;22.20;99.90;;;;;;5066857;28;20105;-73
2023/07/14 10:00:53;;;;;;;6.22;2.28;;;22.10;99.90;;;;;;5063132;28;20040;-73
2023/07/14 10:03:20;;;;;;;7.40;2.13;;;22.10;99.90;;;;;;5071170;28;20051;-72
2023/07/14 10:05:52;;;;;;;6.68;2.17;;;22.00;99.90;;;;;;5076757;28;20544;-72
2023/07/14 10:08:25;;;;;;;7.22;2.40;;;21.90;99.90;;;;;;5072111;28;20048;-73
2023/07/14 10:10:53;;;;;;;8.35;2.58;;;21.90;99.90;;;;;;5075613;28;20044;-72
2023/07/14 10:13:22;;;;;;;9.20;2.75;;;21.80;99.90;;;;;;5068748;28;20474;-72
2023/07/14 10:16:15;;;;;;;6.68;2.30;;;21.80;99.90;;;;;;5071990;28;20044;-73
2023/07/14 10:18:54;;;;;;;7.32;2.83;;;21.70;99.90;;;;;;5070670;28;20082;-73
2023/07/14 10:21:29;;;;;;;8.40;2.88;;;21.70;99.90;;;;;;5075052;28;20048;-72
2023/07/14 10:24:14;;;;;;;6.22;2.70;;;21.60;99.90;;;;;;5073043;28;20081;-72
2023/07/14 10:26:48;;;;;;;7.95;3.30;;;21.60;99.90;;;;;;5081371;28;20036;-73
2023/07/14 10:29:17;;;;;;;6.75;3.50;;;21.60;99.90;;;;;;5077458;28;20051;-73
2023/07/14 10:31:52;;;;;;;6.13;2.78;;;21.60;99.90;;;;;;5076326;28;20043;-73
2023/07/14 10:34:22;;;;;;;7.47;2.90;;;21.60;99.90;;;;;;5067041;28;20045;-73
2023/07/14 10:36:52;;;;;;;7.65;2.53;;;21.70;99.90;;;;;;5080620;28;20573;-73
2023/07/14 10:39:37;;;;;;;8.83;2.93;;;21.90;99.90;;;;;;5071292;28;20059;-72
2023/07/14 10:42:10;;;;;;;9.50;3.00;;;21.90;99.90;;;;;;5085171;28;20584;-72
2023/07/14 10:44:40;;;;;;;7.03;2.78;;;22.00;99.90;;;;;;5074182;28;21390;-73
2023/07/14 10:47:23;;;;;;;8.18;2.75;;;22.10;99.90;;;;;;5073256;28;20473;-73
2023/07/14 10:50:04;;;;;;;8.60;2.80;;;22.20;99.90;;;;;;5082124;28;20044;-73
2023/07/14 10:52:36;;;;;;;;;;;22.30;99.90;;;;;;5075678;28;20048;-73
2023/07/14 10:55:13;;;;;;;6.72;2.95;;;22.40;99.90;;;;;;5074489;28;19928;-73
2023/07/14 10:57:48;;;;;;;7.63;2.78;;;22.40;99.90;;;;;;5080449;28;20888;-73
2023/07/14 11:00:35;;;;;;;7.63;2.72;;;22.50;99.90;;;;;;5079986;28;20067;-73
2023/07/14 11:03:42;;;;;;;8.38;2.80;;;22.50;99.90;;;;;;5081615;28;20039;-73
2023/07/14 11:06:18;;;;;;;8.10;3.25;;;22.60;99.90;;;;;;5084031;28;20036;-73
2023/07/14 11:08:50;;;;;;;8.30;2.95;;;22.60;99.90;;;;;;5076531;28;20492;-72
2023/07/14 11:11:36;;;;;;;10.55;3.10;;;22.60;99.90;;;;;;5076806;28;20834;-73
2023/07/14 11:14:02;;;;;;;7.50;2.88;;;22.50;99.90;;;;;;5083206;28;20397;-73
2023/07/14 11:16:41;;;;;;;6.35;2.85;;;22.50;99.90;;;;;;5080112;28;20046;-70
2023/07/14 11:19:42;;;;;;;7.05;2.85;;;22.40;99.90;;;;;;5079216;28;20119;-72
2023/07/14 11:22:37;;;;;;;8.10;2.90;;;22.40;99.90;;;;;;5075797;28;20105;-72
2023/07/14 11:25:24;;;;;;;9.50;2.78;;;22.30;99.90;;;;;;5020748;28;20055;-72
2023/07/14 11:28:11;;;;;;;7.10;2.88;;;22.40;99.90;;;;;;5075500;28;20501;-72
2023/07/14 11:30:41;;;;;;;7.32;2.90;;;22.40;99.90;;;;;;5084257;28;20531;-72
2023/07/14 11:33:32;;;;;;;5.50;2.78;;;22.40;99.90;;;;;;5076243;28;20056;-73
2023/07/14 11:36:17;;;;;;;9.57;3.08;;;22.50;99.90;;;;;;5061482;28;20102;-73
2023/07/14 11:38:55;;;;;;;8.38;2.97;;;22.50;99.90;;;;;;5083571;28;21051;-73
2023/07/14 11:41:21;;;;;;;8.65;2.80;;;22.50;99.90;;;;;;5088913;28;20044;-74
2023/07/14 11:43:47;;;;;;;7.47;2.90;;;22.60;99.90;;;;;;5076778;28;20692;-75
2023/07/14 11:46:19;;;;;;;6.03;2.65;;;22.60;99.90;;;;;;5078255;28;20040;-71
2023/07/14 11:48:54;;;;;;;7.00;2.70;;;22.60;99.90;;;;;;5071732;28;20040;-73
2023/07/14 11:51:42;;;;;;;7.35;2.88;;;22.70;99.90;;;;;;5059473;28;20393;-74
2023/07/14 11:54:15;;;;;;;6.40;2.42;;;22.80;99.90;;;;;;5076276;28;20381;-74
2023/07/14 11:56:44;;;;;;;7.88;2.65;;;22.80;99.90;;;;;;5078451;28;20174;-74
2023/07/14 11:59:23;;;;;;;6.75;2.35;;;22.90;99.90;;;;;;5071865;28;20852;-73
2023/07/14 12:01:59;;;;;;;7.32;2.50;;;23.00;99.90;;;;;;5071854;28;20086;-74
2023/07/14 12:04:34;;;;;;;7.22;2.45;;;23.00;99.90;;;;;;5077530;28;20487;-73
2023/07/14 12:07:22;;;;;;;5.97;2.00;;;23.00;99.90;;;;;;5069343;28;20045;-73
2023/07/14 12:10:13;;;;;;;6.80;2.58;;;23.10;99.90;;;;;;5081823;28;20075;-73
2023/07/14 12:12:41;;;;;;;7.50;2.50;;;23.10;99.90;;;;;;5079345;28;20550;-73
2023/07/14 12:15:42;;;;;;;6.93;2.90;;;23.20;99.90;;;;;;5069900;28;20059;-73
2023/07/14 12:18:31;;;;;;;7.18;2.83;;;23.10;99.90;;;;;;5072823;28;20056;-73
2023/07/14 12:21:18;;;;;;;7.70;2.55;;;23.10;99.90;;;;;;5072423;28;20063;-73
2023/07/14 12:23:49;;;;;;;7.53;2.78;;;23.10;99.90;;;;;;5058120;28;20051;-73
2023/07/14 12:26:18;;;;;;;8.20;2.80;;;23.10;99.90;;;;;;5051240;28;20055;-74
2023/07/14 12:28:44;;;;;;;7.88;3.25;;;23.10;99.90;;;;;;5065295;28;20149;-74
2023/07/14 12:31:16;;;;;;;9.23;2.95;;;23.10;99.90;;;;;;5073289;28;21075;-72
2023/07/14 12:33:44;;;;;;;7.72;3.30;;;23.00;99.90;;;;;;5068291;28;20417;-73
2023/07/14 12:36:18;;;;;;;10.68;3.38;;;22.90;99.90;;;;;;5070641;28;20040;-74
2023/07/14 12:38:47;;;;;;;7.15;3.22;;;22.90;99.90;;;;;;5067538;28;20074;-74
2023/07/14 12:41:14;;;;;;;11.52;3.55;;;22.90;99.90;;;;;;5067100;28;20048;-74
2023/07/14 12:43:45;;;;;;;8.23;3.45;;;22.90;99.90;;;;;;5075989;28;20055;-73
2023/07/14 12:46:36;;;;;;;8.13;3.40;;;22.90;99.90;;;;;;5074752;28;20044;-74
2023/07/14 12:49:15;;;;;;;6.90;2.88;;;22.90;99.90;;;;;;5065851;28;20082;-74
2023/07/14 12:51:41;;;;;;;7.82;3.42;;;22.90;99.90;;;;;;5070487;28;20043;-72
2023/07/14 12:54:27;;;;;;;7.90;3.38;;;23.00;99.90;;;;;;5073521;28;20047;-74
2023/07/14 12:56:55;;;;;;;8.82;3.50;;;23.00;99.90;;;;;;5073082;28;20055;-73
2023/07/14 12:59:21;;;;;;;10.25;3.60;;;23.00;99.90;;;;;;5073778;28;20570;-72
2023/07/14 13:01:50;;;;;;;10.75;4.78;;;23.00;99.90;;;;;;5076074;28;20121;-74